createdAt,value
2023-01-10T00:01:25.412Z,2.95
2023-01-10T00:04:31.155Z,3.28
2023-01-10T00:07:33.096Z,3.25
2023-01-10T00:10:35.989Z,2.83
2023-01-10T00:13:37.995Z,2.95
2023-01-10T00:16:40.736Z,3.22
2023-01-10T00:19:42.691Z,2.67
2023-01-10T00:22:45.619Z,2.90
2023-01-10T00:25:47.580Z,2.55
2023-01-10T00:28:49.400Z,2.78
2023-01-10T00:31:51.268Z,2.88
2023-01-10T00:34:53.125Z,2.30
2023-01-10T00:38:01.364Z,2.47
2023-01-10T00:41:24.544Z,3.78
2023-01-10T00:44:26.619Z,3.40
2023-01-10T00:47:28.466Z,3.25
2023-01-10T00:50:30.317Z,2.97
2023-01-10T00:53:32.216Z,3.05
2023-01-10T00:56:34.430Z,2.65
2023-01-10T00:59:36.439Z,2.53
2023-01-10T01:02:38.735Z,2.90
2023-01-10T01:05:42.064Z,2.55
2023-01-10T01:08:44.277Z,2.50
2023-01-10T01:11:46.190Z,2.85
2023-01-10T01:14:47.969Z,3.10
2023-01-10T01:17:49.959Z,2.63
2023-01-10T01:20:57.050Z,2.80
2023-01-10T01:23:58.892Z,2.50
2023-01-10T01:27:00.840Z,2.70
2023-01-10T01:30:02.902Z,3.50
2023-01-10T01:33:05.124Z,2.75
2023-01-10T01:36:11.898Z,3.08
2023-01-10T01:39:13.948Z,2.80
2023-01-10T01:42:35.522Z,2.90
2023-01-10T01:45:39.359Z,3.03
2023-01-10T01:48:43.632Z,3.53
2023-01-10T01:51:48.091Z,2.85
2023-01-10T01:54:50.093Z,3.35
2023-01-10T01:57:55.618Z,3.13
2023-01-10T02:00:58.641Z,3.25
2023-01-10T02:04:12.839Z,2.95
2023-01-10T02:07:15.252Z,3.13
2023-01-10T02:10:23.287Z,2.85
2023-01-10T02:13:26.686Z,2.90
2023-01-10T02:19:55.108Z,2.40
2023-01-10T02:23:19.061Z,2.85
2023-01-10T02:26:39.329Z,2.60
2023-01-10T02:29:50.766Z,2.72
2023-01-10T02:33:22.754Z,3.03
2023-01-10T02:36:55.524Z,2.63
2023-01-10T02:40:00.554Z,3.55
2023-01-10T02:43:16.279Z,2.88
2023-01-10T02:46:27.588Z,2.60
2023-01-10T02:49:29.784Z,3.10
2023-01-10T02:52:32.161Z,3.13
2023-01-10T02:55:58.545Z,2.67
2023-01-10T02:59:19.015Z,3.47
2023-01-10T03:02:48.287Z,3.40
2023-01-10T03:06:18.786Z,3.60
2023-01-10T03:09:36.789Z,2.90
2023-01-10T03:12:57.520Z,2.53
2023-01-10T03:16:01.731Z,2.75
2023-01-10T03:19:10.814Z,2.80
2023-01-10T03:22:14.036Z,2.63
2023-01-10T03:25:21.353Z,3.95
2023-01-10T03:28:51.674Z,2.70
2023-01-10T03:32:00.373Z,3.17
2023-01-10T03:35:03.931Z,3.90
2023-01-10T03:38:18.095Z,2.95
2023-01-10T03:41:27.244Z,2.80
2023-01-10T03:44:45.679Z,2.92
2023-01-10T03:47:51.949Z,2.65
2023-01-10T03:50:54.816Z,2.83
2023-01-10T03:54:00.874Z,3.15
2023-01-10T03:57:02.988Z,2.75
2023-01-10T04:00:05.565Z,2.88
2023-01-10T04:03:09.873Z,3.22
2023-01-10T04:06:11.798Z,3.42
2023-01-10T04:09:13.752Z,3.53
2023-01-10T04:12:16.099Z,3.60
2023-01-10T04:15:17.976Z,4.75
2023-01-10T04:18:20.059Z,4.30
2023-01-10T04:21:22.290Z,4.15
2023-01-10T04:24:24.407Z,3.35
2023-01-10T04:27:26.270Z,3.80
2023-01-10T04:30:28.358Z,3.65
2023-01-10T04:33:30.380Z,3.35
2023-01-10T04:36:32.594Z,3.97
2023-01-10T04:39:34.463Z,3.58
2023-01-10T04:42:36.511Z,4.47
2023-01-10T04:45:38.471Z,3.20
2023-01-10T04:48:40.362Z,3.72
2023-01-10T04:51:42.404Z,3.45
2023-01-10T04:54:44.352Z,3.33
2023-01-10T04:57:46.259Z,2.95
2023-01-10T05:00:48.448Z,3.78
2023-01-10T05:03:51.986Z,3.50
2023-01-10T05:06:54.316Z,2.95
2023-01-10T05:09:56.207Z,3.42
2023-01-10T05:12:58.310Z,4.10
2023-01-10T05:16:00.286Z,3.75
2023-01-10T05:19:04.986Z,3.92
2023-01-10T05:22:06.968Z,3.22
2023-01-10T05:25:11.779Z,3.50
2023-01-10T05:29:02.183Z,3.92
2023-01-10T05:32:04.292Z,4.38
2023-01-10T05:35:15.693Z,2.88
2023-01-10T05:38:17.754Z,3.85
2023-01-10T05:41:20.262Z,4.32
2023-01-10T05:44:22.231Z,3.77
2023-01-10T05:47:25.406Z,3.65
2023-01-10T05:50:27.228Z,3.58
2023-01-10T05:53:29.063Z,3.45
2023-01-10T05:56:30.950Z,3.25
2023-01-10T05:59:33.080Z,3.10
2023-01-10T06:02:35.243Z,3.25
2023-01-10T06:05:37.737Z,3.55
2023-01-10T06:08:40.837Z,3.78
2023-01-10T06:11:42.596Z,4.18
2023-01-10T06:14:45.121Z,3.53
2023-01-10T06:17:46.993Z,3.80
2023-01-10T06:20:49.007Z,3.33
2023-01-10T06:23:51.068Z,4.65
2023-01-10T06:26:52.882Z,3.13
2023-01-10T06:29:54.721Z,3.28
2023-01-10T06:33:07.602Z,4.32
2023-01-10T06:36:09.812Z,2.97
2023-01-10T06:39:11.867Z,4.28
2023-01-10T06:42:13.647Z,3.20
2023-01-10T06:45:15.681Z,3.08
2023-01-10T06:48:17.856Z,4.40
2023-01-10T06:51:20.388Z,3.25
2023-01-10T06:54:22.367Z,3.95
2023-01-10T06:57:24.306Z,2.90
2023-01-10T07:00:28.193Z,2.67
2023-01-10T07:03:30.662Z,3.72
2023-01-10T07:06:37.271Z,3.23
2023-01-10T07:09:39.220Z,3.10
2023-01-10T07:12:41.070Z,4.05
2023-01-10T07:15:43.010Z,3.83
2023-01-10T07:18:45.061Z,2.80
2023-01-10T07:21:47.251Z,3.58
2023-01-10T07:24:49.196Z,3.70
2023-01-10T07:27:51.019Z,3.88
2023-01-10T07:30:52.987Z,3.80
2023-01-10T07:33:54.984Z,3.45
2023-01-10T07:36:57.074Z,3.03
2023-01-10T07:39:58.887Z,3.55
2023-01-10T07:43:02.489Z,4.13
2023-01-10T07:46:09.477Z,3.08
2023-01-10T07:49:11.688Z,3.55
2023-01-10T07:52:28.043Z,5.00
2023-01-10T07:55:30.239Z,3.95
2023-01-10T07:58:33.243Z,4.15
2023-01-10T08:01:35.224Z,3.50
2023-01-10T08:04:38.292Z,4.55
2023-01-10T08:07:40.771Z,4.43
2023-01-10T08:10:42.580Z,5.67
2023-01-10T08:13:44.531Z,4.95
2023-01-10T08:16:46.508Z,4.95
2023-01-10T08:19:51.409Z,4.32
2023-01-10T08:22:53.365Z,4.40
2023-01-10T08:25:59.360Z,3.50
2023-01-10T08:29:01.769Z,4.45
2023-01-10T08:32:03.774Z,4.40
2023-01-10T08:35:06.431Z,4.88
2023-01-10T08:38:09.741Z,7.78
2023-01-10T08:41:12.277Z,5.28
2023-01-10T08:44:15.676Z,4.90
2023-01-10T08:47:17.686Z,4.18
2023-01-10T08:50:19.540Z,4.15
2023-01-10T08:53:21.486Z,3.63
2023-01-10T08:56:23.348Z,4.13
2023-01-10T08:59:25.370Z,3.47
2023-01-10T09:02:28.801Z,3.88
2023-01-10T09:05:30.700Z,4.25
2023-01-10T09:08:32.801Z,7.18
2023-01-10T09:11:34.843Z,5.40
2023-01-10T09:14:36.826Z,4.47
2023-01-10T09:17:38.894Z,4.18
2023-01-10T09:20:42.676Z,4.25
2023-01-10T09:23:44.779Z,4.38
2023-01-10T09:26:46.605Z,4.97
2023-01-10T09:29:48.438Z,4.63
2023-01-10T09:32:52.247Z,5.18
2023-01-10T09:35:57.910Z,5.10
2023-01-10T09:38:59.671Z,4.32
2023-01-10T09:42:01.692Z,3.85
2023-01-10T09:45:39.527Z,4.10
2023-01-10T09:48:44.143Z,3.85
2023-01-10T09:51:50.083Z,4.97
2023-01-10T09:54:54.648Z,4.35
2023-01-10T09:58:00.221Z,3.90
2023-01-10T10:01:07.717Z,3.97
2023-01-10T10:04:28.169Z,5.63
2023-01-10T10:07:29.971Z,5.18
2023-01-10T10:10:52.008Z,4.60
2023-01-10T10:14:26.322Z,5.13
2023-01-10T10:17:43.876Z,3.88
2023-01-10T10:21:03.335Z,4.13
2023-01-10T10:24:24.821Z,4.40
2023-01-10T10:27:46.136Z,3.83
2023-01-10T10:31:27.017Z,4.32
2023-01-10T10:34:39.164Z,4.22
2023-01-10T10:37:53.295Z,3.22
2023-01-10T10:40:56.769Z,3.70
2023-01-10T10:47:20.246Z,3.40
2023-01-10T10:50:32.503Z,3.45
2023-01-10T10:53:35.451Z,3.92
2023-01-10T10:56:37.411Z,3.83
2023-01-10T10:59:39.804Z,3.30
2023-01-10T11:02:50.315Z,3.78
2023-01-10T11:05:53.040Z,3.42
2023-01-10T11:08:58.643Z,4.07
2023-01-10T11:12:00.706Z,3.72
2023-01-10T11:15:02.578Z,3.13
2023-01-10T11:18:17.203Z,3.83
2023-01-10T11:21:22.043Z,3.75
2023-01-10T11:24:33.579Z,3.55
2023-01-10T11:27:55.083Z,3.88
2023-01-10T11:30:57.612Z,3.67
2023-01-10T11:34:00.901Z,3.73
2023-01-10T11:37:17.103Z,3.95
2023-01-10T11:40:27.293Z,3.72
2023-01-10T11:43:34.220Z,6.35
2023-01-10T11:46:36.197Z,4.88
2023-01-10T11:49:40.312Z,4.50
2023-01-10T11:52:45.770Z,3.75
2023-01-10T11:55:48.550Z,4.13
2023-01-10T11:58:50.762Z,3.53
2023-01-10T12:02:21.393Z,3.20
2023-01-10T12:05:24.459Z,3.80
2023-01-10T12:08:29.176Z,4.15
2023-01-10T12:11:33.197Z,4.60
2023-01-10T12:14:36.064Z,4.00
2023-01-10T12:17:38.187Z,3.95
2023-01-10T12:20:47.398Z,4.13
2023-01-10T12:23:50.860Z,3.47
2023-01-10T12:26:54.111Z,4.32
2023-01-10T12:30:04.695Z,3.67
2023-01-10T12:33:41.426Z,3.40
2023-01-10T12:36:53.960Z,3.40
2023-01-10T12:40:17.266Z,3.90
2023-01-10T12:43:47.992Z,3.25
2023-01-10T12:47:09.851Z,4.07
2023-01-10T12:50:30.096Z,3.50
2023-01-10T12:53:44.373Z,3.08
2023-01-10T12:56:47.924Z,3.47
2023-01-10T12:59:50.580Z,3.45
2023-01-10T13:02:56.757Z,3.87
2023-01-10T13:05:59.645Z,4.72
2023-01-10T13:09:07.816Z,4.30
2023-01-10T13:12:25.062Z,3.70
2023-01-10T13:15:39.109Z,3.92
2023-01-10T13:18:59.863Z,3.72
2023-01-10T13:22:16.414Z,3.03
2023-01-10T13:25:37.889Z,3.78
2023-01-10T13:28:58.411Z,4.28
2023-01-10T13:32:02.461Z,4.03
2023-01-10T13:35:19.021Z,3.00
2023-01-10T13:38:26.599Z,3.45
2023-01-10T13:42:16.017Z,3.13
2023-01-10T13:45:26.787Z,7.20
2023-01-10T13:48:29.022Z,4.13
2023-01-10T13:51:31.966Z,2.90
2023-01-10T13:54:33.857Z,3.17
2023-01-10T13:57:59.430Z,4.18
2023-01-10T14:01:21.001Z,3.90
2023-01-10T14:04:36.418Z,3.20
2023-01-10T14:07:55.028Z,3.45
2023-01-10T14:11:12.780Z,3.92
2023-01-10T14:14:20.036Z,2.50
2023-01-10T14:17:33.870Z,3.35
2023-01-10T14:20:36.898Z,3.10
2023-01-10T14:23:48.294Z,2.38
2023-01-10T14:26:50.952Z,2.70
2023-01-10T14:30:00.624Z,2.90
2023-01-10T14:33:23.504Z,2.55
2023-01-10T14:36:30.470Z,2.42
2023-01-10T14:39:32.583Z,2.05
2023-01-10T14:42:36.246Z,2.70
2023-01-10T14:46:03.572Z,2.13
2023-01-10T14:49:35.265Z,2.58
2023-01-10T14:52:42.120Z,2.33
2023-01-10T14:55:43.906Z,2.80
2023-01-10T14:58:45.840Z,2.85
2023-01-10T15:01:49.689Z,2.22
2023-01-10T15:04:56.814Z,3.10
2023-01-10T15:08:22.828Z,4.35
2023-01-10T15:11:26.818Z,2.60
2023-01-10T15:14:30.228Z,2.17
2023-01-10T15:20:34.482Z,2.53
2023-01-10T15:23:41.942Z,2.05
2023-01-10T15:26:43.886Z,1.90
2023-01-10T15:29:47.183Z,1.92
2023-01-10T15:33:02.034Z,1.33
2023-01-10T15:36:13.897Z,1.67
2023-01-10T15:39:25.729Z,1.65
2023-01-10T15:42:27.820Z,2.58
2023-01-10T15:45:37.589Z,3.47
2023-01-10T15:48:42.759Z,2.53
2023-01-10T15:51:48.175Z,1.73
2023-01-10T15:54:50.240Z,2.08
2023-01-10T15:57:52.301Z,2.42
2023-01-10T16:00:56.171Z,1.42
2023-01-10T16:04:04.647Z,2.38
2023-01-10T16:07:16.598Z,1.88
2023-01-10T16:10:27.488Z,1.38
2023-01-10T16:13:32.821Z,1.33
2023-01-10T16:16:34.952Z,1.33
2023-01-10T16:19:37.059Z,1.55
2023-01-10T16:22:39.493Z,1.08
2023-01-10T16:25:45.594Z,1.90
2023-01-10T16:28:47.421Z,1.38
2023-01-10T16:31:50.153Z,1.40
2023-01-10T16:34:52.287Z,1.58
2023-01-10T16:37:56.963Z,1.00
2023-01-10T16:41:21.261Z,1.02
2023-01-10T16:44:23.328Z,1.02
2023-01-10T16:47:25.342Z,1.05
2023-01-10T16:50:27.425Z,0.95
2023-01-10T16:53:31.938Z,1.05
2023-01-10T16:56:33.795Z,1.00
2023-01-10T16:59:35.883Z,0.80
2023-01-10T17:02:38.076Z,0.90
2023-01-10T17:05:41.157Z,0.95
2023-01-10T17:08:44.187Z,1.58
2023-01-10T17:11:50.849Z,1.60
2023-01-10T17:16:29.266Z,1.27
2023-01-10T17:20:33.873Z,0.90
2023-01-10T17:24:36.643Z,1.05
2023-01-10T17:27:38.969Z,0.80
2023-01-10T17:30:44.012Z,1.02
2023-01-10T17:33:46.562Z,0.90
2023-01-10T17:36:48.703Z,0.97
2023-01-10T17:39:54.119Z,1.20
2023-01-10T17:43:10.556Z,0.75
2023-01-10T17:46:17.494Z,0.70
2023-01-10T17:49:22.856Z,0.85
2023-01-10T17:52:24.893Z,1.73
2023-01-10T17:55:26.960Z,0.82
2023-01-10T17:58:31.731Z,0.80
2023-01-10T18:01:39.376Z,0.80
2023-01-10T18:04:42.000Z,0.90
2023-01-10T18:07:52.812Z,0.88
2023-01-10T18:11:01.416Z,0.80
2023-01-10T18:15:35.860Z,0.88
2023-01-10T18:22:57.967Z,0.80
2023-01-10T18:26:11.864Z,1.45
2023-01-10T18:29:14.214Z,1.25
2023-01-10T18:33:38.671Z,1.35
2023-01-10T18:44:46.687Z,0.88
2023-01-10T18:48:02.399Z,0.60
2023-01-10T18:51:15.784Z,0.70
2023-01-10T18:54:18.421Z,0.70
2023-01-10T18:57:30.754Z,0.80
2023-01-10T19:00:45.065Z,0.70
2023-01-10T19:03:56.417Z,0.50
2023-01-10T19:07:08.530Z,0.57
2023-01-10T19:10:11.215Z,0.57
2023-01-10T19:13:22.917Z,0.63
2023-01-10T19:16:29.920Z,1.27
2023-01-10T19:19:32.127Z,0.98
2023-01-10T19:22:34.430Z,1.35
2023-01-10T19:25:37.763Z,1.30
2023-01-10T19:31:42.610Z,0.80
2023-01-10T19:34:46.363Z,0.70
2023-01-10T19:37:49.181Z,0.70
2023-01-10T19:40:52.929Z,0.75
2023-01-10T19:44:14.712Z,0.70
2023-01-10T19:47:16.648Z,0.90
2023-01-10T19:50:19.060Z,1.73
2023-01-10T19:53:25.368Z,1.10
2023-01-10T19:56:30.627Z,0.82
2023-01-10T19:59:36.114Z,1.10
2023-01-10T20:02:38.117Z,1.13
2023-01-10T20:05:40.131Z,1.10
2023-01-10T20:08:42.026Z,1.05
2023-01-10T20:11:46.281Z,0.98
2023-01-10T20:14:54.661Z,0.93
2023-01-10T20:17:56.555Z,0.80
2023-01-10T20:20:58.993Z,1.00
2023-01-10T20:24:00.957Z,0.70
2023-01-10T20:27:09.404Z,1.00
2023-01-10T20:30:14.095Z,1.05
2023-01-10T20:33:16.056Z,1.05
2023-01-10T20:36:20.751Z,0.88
2023-01-10T20:39:23.656Z,0.73
2023-01-10T20:42:25.997Z,0.80
2023-01-10T20:45:28.245Z,0.80
2023-01-10T20:48:30.512Z,0.70
2023-01-10T20:51:37.788Z,0.77
2023-01-10T20:54:39.978Z,0.80
2023-01-10T20:57:41.942Z,0.75
2023-01-10T21:00:44.324Z,0.63
2023-01-10T21:03:47.271Z,0.90
2023-01-10T21:06:49.131Z,0.80
2023-01-10T21:09:51.091Z,1.20
2023-01-10T21:12:53.155Z,1.40
2023-01-10T21:15:57.030Z,1.00
2023-01-10T21:19:01.395Z,1.00
2023-01-10T21:22:03.799Z,1.38
2023-01-10T21:25:06.169Z,1.40
2023-01-10T21:28:11.295Z,1.25
2023-01-10T21:31:18.358Z,1.10
2023-01-10T21:34:20.405Z,1.52
2023-01-10T21:37:22.330Z,1.13
2023-01-10T21:40:26.341Z,0.70
2023-01-10T21:43:31.077Z,1.23
2023-01-10T21:46:33.274Z,0.80
2023-01-10T21:49:35.331Z,0.80
2023-01-10T21:52:40.573Z,0.90
2023-01-10T21:55:44.487Z,0.70
2023-01-10T21:58:48.090Z,0.88
2023-01-10T22:01:50.148Z,1.27
2023-01-10T22:04:54.975Z,1.00
2023-01-10T22:08:05.774Z,0.80
2023-01-10T22:11:19.144Z,0.85
2023-01-10T22:14:35.694Z,0.80
2023-01-10T22:17:49.254Z,0.90
2023-01-10T22:24:48.412Z,0.90
2023-01-10T22:27:50.361Z,1.23
2023-01-10T22:30:54.866Z,1.23
2023-01-10T22:33:56.809Z,1.40
2023-01-10T22:36:58.876Z,1.10
2023-01-10T22:40:59.726Z,1.10
2023-01-10T22:44:20.111Z,1.10
2023-01-10T22:47:33.325Z,0.95
2023-01-10T22:50:35.289Z,0.70
2023-01-10T22:53:37.165Z,0.85
2023-01-10T22:56:39.732Z,0.73
2023-01-10T22:59:41.668Z,0.77
2023-01-10T23:02:43.721Z,0.80
2023-01-10T23:05:45.627Z,0.90
2023-01-10T23:08:48.026Z,0.70
2023-01-10T23:11:49.940Z,0.82
2023-01-10T23:14:51.932Z,1.42
2023-01-10T23:17:53.843Z,0.60
2023-01-10T23:20:56.029Z,0.60
2023-01-10T23:23:58.098Z,0.60
2023-01-10T23:27:00.051Z,0.68
2023-01-10T23:30:01.956Z,0.70
2023-01-10T23:33:03.932Z,0.85
2023-01-10T23:36:06.220Z,0.70
2023-01-10T23:39:08.374Z,0.65
2023-01-10T23:42:10.793Z,0.80
2023-01-10T23:45:12.739Z,1.00
2023-01-10T23:48:15.185Z,0.60
2023-01-10T23:51:17.301Z,0.60
2023-01-10T23:54:19.208Z,0.50
2023-01-10T23:57:21.138Z,0.70
